createdAt,value
2023-03-26T00:00:03.040Z,97529.37
2023-03-26T00:05:08.017Z,97531.21
2023-03-26T00:10:12.875Z,97530.63
2023-03-26T00:14:57.900Z,97527.72
2023-03-26T00:19:43.957Z,97522.86
2023-03-26T00:24:38.775Z,97525.30
2023-03-26T00:29:04.840Z,97519.25
2023-03-26T00:33:28.855Z,97509.23
2023-03-26T00:38:33.048Z,97507.50
2023-03-26T00:42:59.045Z,97503.11
2023-03-26T00:47:47.273Z,97500.11
2023-03-26T00:52:53.302Z,97503.21
2023-03-26T00:57:32.724Z,97502.30
2023-03-26T01:02:00.442Z,97512.33
2023-03-26T01:07:09.015Z,97510.48
2023-03-26T01:12:17.013Z,97509.48
2023-03-26T01:21:33.868Z,97514.59
2023-03-26T01:26:18.541Z,97509.13
2023-03-26T01:31:20.649Z,97514.52
2023-03-26T01:36:45.945Z,97509.86
2023-03-26T01:41:36.596Z,97512.32
2023-03-26T01:46:20.396Z,97510.86
2023-03-26T01:55:50.179Z,97513.91
2023-03-26T02:01:06.208Z,97515.16
2023-03-26T02:06:10.752Z,97511.23
2023-03-26T02:11:16.020Z,97505.16
2023-03-26T02:16:19.418Z,97509.50
2023-03-26T02:20:51.752Z,97506.79
2023-03-26T02:25:16.204Z,97510.21
2023-03-26T02:29:40.247Z,97516.73
2023-03-26T02:34:45.363Z,97515.61
2023-03-26T02:39:49.181Z,97519.85
2023-03-26T02:44:53.978Z,97524.95
2023-03-26T02:49:59.373Z,97525.27
2023-03-26T02:55:07.382Z,97525.23
2023-03-26T02:59:52.033Z,97526.73
2023-03-26T03:04:56.889Z,97523.18
2023-03-26T03:09:41.012Z,97517.36
2023-03-26T03:14:44.983Z,97507.63
2023-03-26T03:19:33.453Z,97512.84
2023-03-26T03:24:00.162Z,97515.13
2023-03-26T03:28:25.580Z,97522.80
2023-03-26T03:32:49.720Z,97522.55
2023-03-26T03:37:18.573Z,97523.83
2023-03-26T03:41:42.735Z,97527.90
2023-03-26T03:46:27.311Z,97534.66
2023-03-26T03:51:31.110Z,97515.68
2023-03-26T03:56:17.250Z,97542.71
2023-03-26T04:01:35.019Z,97546.27
2023-03-26T04:06:38.973Z,97537.28
2023-03-26T04:11:43.855Z,97540.63
2023-03-26T04:16:12.342Z,97541.33
2023-03-26T04:20:58.289Z,97533.77
2023-03-26T04:25:43.698Z,97539.98
2023-03-26T04:30:28.772Z,97541.40
2023-03-26T04:35:47.102Z,97541.02
2023-03-26T04:40:56.590Z,97542.64
2023-03-26T04:46:11.039Z,97542.02
2023-03-26T04:51:24.883Z,97539.86
2023-03-26T04:56:40.931Z,97544.35
2023-03-26T05:01:47.075Z,97542.08
2023-03-26T05:06:31.883Z,97549.83
2023-03-26T05:11:52.771Z,97547.68
2023-03-26T05:16:53.126Z,97554.59
2023-03-26T05:21:58.949Z,97559.05
2023-03-26T05:26:43.080Z,97562.02
2023-03-26T05:31:52.599Z,97563.82
2023-03-26T05:36:59.547Z,97559.88
2023-03-26T05:42:04.750Z,97549.73
2023-03-26T05:46:51.008Z,97545.57
2023-03-26T05:51:55.597Z,97542.33
2023-03-26T05:56:44.392Z,97546.79
2023-03-26T06:01:46.642Z,97554.52
2023-03-26T06:06:33.119Z,97553.98
2023-03-26T06:11:42.012Z,97553.93
2023-03-26T06:16:46.914Z,97563.26
2023-03-26T06:21:51.818Z,97563.52
2023-03-26T06:26:36.024Z,97567.84
2023-03-26T06:31:40.445Z,97569.16
2023-03-26T06:36:46.450Z,97562.11
2023-03-26T06:41:33.436Z,97563.59
2023-03-26T06:46:44.070Z,97563.73
2023-03-26T06:51:46.508Z,97553.64
2023-03-26T06:56:59.665Z,97544.66
2023-03-26T07:02:09.210Z,97536.67
2023-03-26T07:07:12.866Z,97537.20
2023-03-26T07:12:06.297Z,97535.69
2023-03-26T07:16:56.642Z,97528.99
2023-03-26T07:22:06.594Z,97522.27
2023-03-26T07:27:12.988Z,97518.48
2023-03-26T07:32:06.092Z,97521.48
2023-03-26T07:36:53.535Z,97516.59
2023-03-26T07:41:56.748Z,97516.95
2023-03-26T07:46:41.566Z,97512.34
2023-03-26T07:51:28.744Z,97506.91
2023-03-26T07:56:46.088Z,97499.29
2023-03-26T08:02:00.332Z,97502.96
2023-03-26T08:06:32.579Z,97509.00
2023-03-26T08:11:26.606Z,97507.59
2023-03-26T08:16:33.579Z,97507.50
2023-03-26T08:21:18.994Z,97506.30
2023-03-26T08:26:15.646Z,97505.98
2023-03-26T08:31:22.453Z,97506.15
2023-03-26T08:35:47.617Z,97506.52
2023-03-26T08:40:15.227Z,97502.98
2023-03-26T08:44:46.751Z,97496.00
2023-03-26T08:49:19.597Z,97497.75
2023-03-26T08:54:23.136Z,97498.78
2023-03-26T08:59:11.421Z,97491.15
2023-03-26T09:04:20.255Z,97483.25
2023-03-26T09:09:42.431Z,97481.45
2023-03-26T09:14:55.729Z,97480.94
2023-03-26T09:19:48.945Z,97483.94
2023-03-26T09:24:15.800Z,97486.99
2023-03-26T09:28:38.317Z,97489.98
2023-03-26T09:33:43.966Z,97482.70
2023-03-26T09:38:40.091Z,97474.75
2023-03-26T09:43:22.691Z,97474.25
2023-03-26T09:47:50.231Z,97468.27
2023-03-26T09:52:33.061Z,97449.41
2023-03-26T09:57:42.864Z,97452.11
2023-03-26T10:03:01.219Z,97453.36
2023-03-26T10:07:34.433Z,97442.34
2023-03-26T10:12:20.027Z,97436.77
2023-03-26T10:17:32.825Z,97433.76
2023-03-26T10:22:22.327Z,97436.05
2023-03-26T10:27:17.305Z,97437.09
2023-03-26T10:32:22.797Z,97431.54
2023-03-26T10:37:19.012Z,97414.77
2023-03-26T10:41:58.729Z,97414.98
2023-03-26T10:46:38.478Z,97412.89
2023-03-26T10:51:34.915Z,97415.02
2023-03-26T10:56:20.168Z,97414.52
2023-03-26T11:01:15.539Z,97413.03
2023-03-26T11:05:41.076Z,97409.58
2023-03-26T11:10:55.875Z,97407.41
2023-03-26T11:15:20.498Z,97406.55
2023-03-26T11:20:02.683Z,97411.02
2023-03-26T11:25:06.854Z,97407.95
2023-03-26T11:29:58.795Z,97405.80
2023-03-26T11:34:25.737Z,97403.19
2023-03-26T11:39:27.929Z,97398.27
2023-03-26T11:43:53.014Z,97395.45
2023-03-26T11:48:19.567Z,97389.33
2023-03-26T11:52:44.918Z,97379.04
2023-03-26T11:57:08.415Z,97370.15
2023-03-26T12:01:33.572Z,97365.86
2023-03-26T12:06:04.746Z,97356.78
2023-03-26T12:10:37.524Z,97356.74
2023-03-26T12:15:02.554Z,97345.75
2023-03-26T12:19:26.245Z,97338.80
2023-03-26T12:23:49.224Z,97335.69
2023-03-26T12:28:19.638Z,97320.17
2023-03-26T12:32:55.407Z,97312.91
2023-03-26T12:37:39.224Z,97307.63
2023-03-26T12:44:46.164Z,97291.89
2023-03-26T12:47:59.034Z,97291.73
2023-03-26T12:52:02.766Z,97281.88
2023-03-26T12:57:11.991Z,97265.63
2023-03-26T13:02:02.549Z,97263.16
2023-03-26T13:07:17.768Z,97257.83
2023-03-26T13:12:05.997Z,97246.06
2023-03-26T13:17:13.769Z,97238.61
2023-03-26T13:21:53.794Z,97240.10
2023-03-26T13:26:33.302Z,97244.20
2023-03-26T13:31:18.472Z,97224.02
2023-03-26T13:35:51.591Z,97215.90
2023-03-26T13:40:43.655Z,97212.81
2023-03-26T13:45:30.207Z,97218.67
2023-03-26T13:50:26.309Z,97224.52
2023-03-26T13:55:26.980Z,97220.34
2023-03-26T14:00:46.000Z,97212.93
2023-03-26T14:05:31.511Z,97205.73
2023-03-26T14:10:35.345Z,97206.78
2023-03-26T14:15:08.245Z,97209.81
2023-03-26T14:20:11.929Z,97208.14
2023-03-26T14:25:26.117Z,97200.59
2023-03-26T14:30:19.414Z,97199.67
2023-03-26T14:35:18.515Z,97190.42
2023-03-26T14:40:08.301Z,97184.60
2023-03-26T14:45:12.381Z,97176.64
2023-03-26T14:49:42.290Z,97169.52
2023-03-26T14:54:30.138Z,97165.35
2023-03-26T14:59:25.902Z,97153.98
2023-03-26T15:04:11.318Z,97156.09
2023-03-26T15:08:53.950Z,97145.71
2023-03-26T15:13:49.444Z,97138.79
2023-03-26T15:19:08.412Z,97132.27
2023-03-26T15:23:58.336Z,97128.28
2023-03-26T15:28:27.874Z,97123.58
2023-03-26T15:32:56.070Z,97118.14
2023-03-26T15:37:17.581Z,97106.44
2023-03-26T15:42:06.006Z,97101.02
2023-03-26T15:46:34.259Z,97095.09
2023-03-26T15:51:16.565Z,97088.58
2023-03-26T15:55:46.398Z,97081.13
2023-03-26T16:00:42.399Z,97079.19
2023-03-26T16:05:29.477Z,97071.99
2023-03-26T16:09:58.166Z,97060.46
2023-03-26T16:14:23.594Z,97055.19
2023-03-26T16:18:50.669Z,97049.69
2023-03-26T16:23:35.048Z,97055.55
2023-03-26T16:28:07.374Z,97052.89
2023-03-26T16:33:06.381Z,97052.96
2023-03-26T16:37:57.496Z,97056.98
2023-03-26T16:43:21.615Z,97059.16
2023-03-26T16:48:20.856Z,97060.14
2023-03-26T16:52:49.217Z,97064.65
2023-03-26T16:57:18.269Z,97061.71
2023-03-26T17:01:41.838Z,97062.75
2023-03-26T17:07:09.540Z,97063.29
2023-03-26T17:12:01.405Z,97053.98
2023-03-26T17:17:06.708Z,97046.30
2023-03-26T17:21:54.518Z,97043.45
2023-03-26T17:27:01.292Z,97062.50
2023-03-26T17:32:20.723Z,97064.40
2023-03-26T17:36:56.133Z,97060.94
2023-03-26T17:41:38.500Z,97051.34
2023-03-26T17:46:04.352Z,97043.02
2023-03-26T17:50:29.104Z,97033.73
2023-03-26T17:55:32.487Z,97030.75
2023-03-26T18:00:36.574Z,97038.61
2023-03-26T18:05:00.585Z,97031.98
2023-03-26T18:10:08.321Z,97028.52
2023-03-26T18:15:10.239Z,97024.42
2023-03-26T18:19:58.077Z,97027.34
2023-03-26T18:24:41.790Z,97021.34
2023-03-26T18:29:30.033Z,97019.26
2023-03-26T18:34:14.224Z,97018.31
2023-03-26T18:38:59.323Z,97013.96
2023-03-26T18:43:56.599Z,97004.77
2023-03-26T18:49:03.672Z,97002.68
2023-03-26T18:53:56.079Z,96992.18
2023-03-26T18:59:08.850Z,96983.11
2023-03-26T19:03:57.396Z,96979.66
2023-03-26T19:08:41.469Z,96979.30
2023-03-26T19:13:10.738Z,96980.08
2023-03-26T19:17:43.432Z,96975.48
2023-03-26T19:22:07.470Z,96971.94
2023-03-26T19:26:43.484Z,96959.73
2023-03-26T19:31:38.405Z,96954.39
2023-03-26T19:36:05.823Z,96952.23
2023-03-26T19:40:35.783Z,96945.72
2023-03-26T19:45:06.334Z,96939.02
2023-03-26T19:49:32.472Z,96931.61
2023-03-26T19:54:12.648Z,96931.30
2023-03-26T19:59:17.759Z,96913.97
2023-03-26T20:03:42.884Z,96909.58
2023-03-26T20:08:08.829Z,96905.10
2023-03-26T20:12:35.400Z,96899.77
2023-03-26T20:17:41.771Z,96898.09
2023-03-26T20:22:07.398Z,96899.08
2023-03-26T20:26:31.989Z,96890.62
2023-03-26T20:30:56.260Z,96879.55
2023-03-26T20:35:35.819Z,96867.66
2023-03-26T20:40:13.583Z,96860.92
2023-03-26T20:45:21.625Z,96836.21
2023-03-26T20:49:45.305Z,96839.35
2023-03-26T20:54:25.342Z,96834.37
2023-03-26T20:58:54.735Z,96828.19
2023-03-26T21:03:23.480Z,96830.34
2023-03-26T21:08:09.916Z,96837.27
2023-03-26T21:13:05.844Z,96848.21
2023-03-26T21:18:16.028Z,96857.59
2023-03-26T21:23:20.157Z,96855.86
2023-03-26T21:28:02.866Z,96855.60
2023-03-26T21:32:30.866Z,96864.30
2023-03-26T21:37:17.842Z,96862.52
2023-03-26T21:42:06.051Z,96841.92
2023-03-26T21:46:41.546Z,96833.52
2023-03-26T21:51:46.571Z,96827.10
2023-03-26T21:56:39.437Z,96824.64
2023-03-26T22:01:46.842Z,96819.02
2023-03-26T22:06:39.386Z,96810.91
2023-03-26T22:11:24.834Z,96804.52
2023-03-26T22:15:59.323Z,96793.17
2023-03-26T22:21:04.226Z,96779.04
2023-03-26T22:25:48.679Z,96768.92
2023-03-26T22:30:35.709Z,96747.36
2023-03-26T22:35:51.248Z,96739.64
2023-03-26T22:40:58.928Z,96746.63
2023-03-26T22:46:05.880Z,96740.05
2023-03-26T22:51:10.068Z,96732.86
2023-03-26T22:56:20.793Z,96717.99
2023-03-26T23:01:07.286Z,96715.80
2023-03-26T23:06:14.376Z,96709.68
2023-03-26T23:10:58.929Z,96703.77
2023-03-26T23:15:23.000Z,96701.91
2023-03-26T23:19:47.390Z,96690.40
2023-03-26T23:24:33.326Z,96687.94
2023-03-26T23:29:22.031Z,96687.17
2023-03-26T23:34:25.945Z,96688.02
2023-03-26T23:39:15.804Z,96690.48
2023-03-26T23:43:55.878Z,96693.61
2023-03-26T23:48:45.334Z,96689.77
2023-03-26T23:53:37.100Z,96689.10
2023-03-26T23:58:26.113Z,96683.32
